aviador You're here:

LFKB Decoded Metar

BASTIA in CORSE ISL.
Report Time2017-09-23 09:00:00
UTC Time2017-09-23 09:17:26
Flight Rules vfr VFR
Wind140° at 11 kt
W.Decomp.*RWY 16: 10.2 kt HW 4.1 kt LCW
W.Rank140° ranks 10
Current wind is above 140° avg. (6.7)
Visibility9999 m
Phenomena:N/A
Clouds:Few 023 Hf
Expected CloudBase > 2,800 ft AGL from Temp-Dew spread
CeilingNone
Temp23°C (ISA +8)
Dew Point16°C (65% RH)
AAT21.0°C
QNH1021 hPa
Density Alt951 ft
Elevation39 ft
Report Wrong Elevation
Raw Report
LFKB 230900Z 14011KT 110V170 9999 FEW023 23/16 Q1021 NOSIG=

Extra information for LFKB:More info

Metar Taf Metar & Taf Last 4 Metars F.Rules Stats Wind Profile Meteogram Temp Stats Airport Information Weather charts Add Link Nearby VenuesMetar ALERT Operation Metar Decoded Social comments